createdAt,value
2022-08-30T00:00:09.189Z,44.38
2022-08-30T00:04:09.410Z,45.06
2022-08-30T00:08:12.227Z,46.47
2022-08-30T00:12:14.097Z,46.73
2022-08-30T00:16:15.287Z,46.81
2022-08-30T00:20:19.258Z,47.13
2022-08-30T00:24:21.694Z,47.06
2022-08-30T00:28:21.699Z,47.42
2022-08-30T00:32:22.005Z,47.89
2022-08-30T00:36:22.234Z,48.50
2022-08-30T00:40:27.406Z,48.26
2022-08-30T00:44:27.620Z,48.20
2022-08-30T00:48:28.180Z,47.96
2022-08-30T00:52:28.394Z,48.35
2022-08-30T00:56:32.312Z,48.62
2022-08-30T01:00:33.488Z,48.07
2022-08-30T01:04:34.538Z,48.90
2022-08-30T01:08:34.756Z,49.22
2022-08-30T01:12:37.160Z,50.12
2022-08-30T01:16:38.303Z,50.45
2022-08-30T01:20:45.425Z,49.76
2022-08-30T01:24:47.992Z,49.75
2022-08-30T01:28:50.575Z,50.13
2022-08-30T01:32:51.356Z,50.48
2022-08-30T01:36:51.816Z,50.58
2022-08-30T01:40:59.877Z,51.02
2022-08-30T01:45:00.427Z,51.29
2022-08-30T01:49:01.368Z,51.50
2022-08-30T01:53:00.965Z,51.82
2022-08-30T01:57:03.346Z,52.39
2022-08-30T02:01:03.546Z,52.46
2022-08-30T02:05:03.816Z,52.98
2022-08-30T02:09:05.273Z,53.17
2022-08-30T02:13:06.859Z,53.49
2022-08-30T02:17:08.019Z,53.88
2022-08-30T02:21:09.075Z,54.22
2022-08-30T02:25:20.455Z,54.22
2022-08-30T02:29:26.136Z,54.61
2022-08-30T02:33:27.485Z,55.09
2022-08-30T02:37:27.818Z,55.33
2022-08-30T02:41:30.891Z,55.78
2022-08-30T02:45:36.708Z,56.14
2022-08-30T02:49:37.390Z,56.44
2022-08-30T02:53:38.849Z,56.50
2022-08-30T02:57:40.005Z,56.57
2022-08-30T03:01:42.448Z,56.77
2022-08-30T03:05:46.005Z,57.25
2022-08-30T03:09:47.063Z,58.02
2022-08-30T03:13:47.513Z,58.23
2022-08-30T03:17:50.324Z,58.53
2022-08-30T03:22:01.072Z,58.78
2022-08-30T03:26:01.647Z,59.15
2022-08-30T03:30:01.573Z,59.11
2022-08-30T03:34:10.860Z,59.90
2022-08-30T03:38:10.707Z,60.24
2022-08-30T03:42:11.392Z,60.32
2022-08-30T03:46:20.287Z,60.38
2022-08-30T03:50:33.623Z,60.17
2022-08-30T03:55:01.595Z,60.56
2022-08-30T03:59:02.667Z,60.90
2022-08-30T04:03:03.137Z,61.09
2022-08-30T04:07:07.327Z,61.02
2022-08-30T04:11:08.365Z,61.38
2022-08-30T04:15:11.019Z,61.16
2022-08-30T04:19:11.916Z,60.29
2022-08-30T04:23:27.824Z,59.55
2022-08-30T04:27:54.363Z,58.36
2022-08-30T04:32:23.170Z,57.83
2022-08-30T04:36:52.585Z,56.31
2022-08-30T04:41:13.705Z,55.06
2022-08-30T04:45:16.986Z,54.14
2022-08-30T04:49:17.385Z,53.98
2022-08-30T04:53:18.275Z,52.99
2022-08-30T04:57:20.920Z,51.94
2022-08-30T05:01:23.813Z,50.11
2022-08-30T05:05:42.441Z,48.54
2022-08-30T05:09:43.275Z,47.23
2022-08-30T05:13:46.947Z,47.12
2022-08-30T05:17:47.860Z,47.55
2022-08-30T05:21:50.458Z,47.68
2022-08-30T05:25:51.194Z,47.43
2022-08-30T05:29:53.623Z,49.30
2022-08-30T05:33:56.727Z,52.73
2022-08-30T05:37:59.363Z,53.96
2022-08-30T05:42:00.433Z,55.32
2022-08-30T05:46:08.257Z,56.15
2022-08-30T05:50:15.484Z,56.76
2022-08-30T05:54:18.936Z,56.88
2022-08-30T05:58:19.372Z,56.22
2022-08-30T06:02:23.422Z,57.28
2022-08-30T06:06:29.039Z,57.77
2022-08-30T06:10:29.947Z,57.49
2022-08-30T06:14:33.407Z,57.56
2022-08-30T06:18:41.425Z,56.38
2022-08-30T06:22:42.739Z,56.22
2022-08-30T06:26:53.282Z,55.76
2022-08-30T06:30:54.108Z,54.79
2022-08-30T06:34:58.332Z,53.27
2022-08-30T06:39:01.456Z,52.09
2022-08-30T06:43:05.967Z,50.99
2022-08-30T06:47:06.234Z,49.11
2022-08-30T06:51:10.318Z,48.52
2022-08-30T06:55:15.060Z,47.44
2022-08-30T06:59:15.882Z,46.58
2022-08-30T07:03:24.229Z,45.59
2022-08-30T07:07:30.604Z,44.54
2022-08-30T07:11:42.864Z,42.78
2022-08-30T07:15:47.902Z,43.48
2022-08-30T07:19:48.506Z,42.73
2022-08-30T07:23:56.576Z,41.37
2022-08-30T07:27:57.886Z,41.68
2022-08-30T07:32:00.005Z,41.42
2022-08-30T07:36:01.802Z,40.92
2022-08-30T07:40:10.640Z,40.98
2022-08-30T07:44:23.135Z,41.33
2022-08-30T07:48:32.364Z,41.59
2022-08-30T07:52:34.894Z,41.62
2022-08-30T07:56:39.881Z,42.07
2022-08-30T08:00:41.149Z,41.58
2022-08-30T08:04:43.588Z,41.44
2022-08-30T08:08:47.652Z,41.74
2022-08-30T08:12:56.078Z,40.64
2022-08-30T08:16:59.180Z,40.04
2022-08-30T08:20:59.679Z,39.42
2022-08-30T08:24:59.951Z,38.68
2022-08-30T08:29:04.687Z,38.65
2022-08-30T08:33:04.420Z,37.91
2022-08-30T08:37:05.183Z,36.85
2022-08-30T08:41:10.246Z,38.29
2022-08-30T08:45:19.971Z,38.79
2022-08-30T08:49:37.807Z,38.01
2022-08-30T08:53:47.185Z,38.19
2022-08-30T08:58:01.309Z,37.53
2022-08-30T09:02:16.928Z,37.48
2022-08-30T09:07:04.731Z,37.51
2022-08-30T09:11:16.456Z,37.58
2022-08-30T09:15:27.487Z,37.71
2022-08-30T09:19:42.954Z,38.09
2022-08-30T09:23:52.071Z,37.84
2022-08-30T09:27:56.194Z,37.68
2022-08-30T09:32:25.150Z,38.07
2022-08-30T09:36:31.375Z,38.74
2022-08-30T09:40:38.631Z,38.27
2022-08-30T09:44:43.421Z,38.52
2022-08-30T09:50:09.779Z,38.60
2022-08-30T09:55:23.656Z,38.29
2022-08-30T10:00:58.550Z,38.25
2022-08-30T10:06:31.417Z,37.30
2022-08-30T10:10:53.942Z,35.23
2022-08-30T10:15:21.626Z,34.57
2022-08-30T10:19:45.715Z,33.76
2022-08-30T10:24:21.025Z,35.54
2022-08-30T10:28:35.867Z,34.92
2022-08-30T10:33:02.701Z,33.88
2022-08-30T10:37:29.666Z,33.46
2022-08-30T10:41:50.675Z,33.70
2022-08-30T10:46:25.011Z,33.21
2022-08-30T10:50:41.026Z,32.80
2022-08-30T10:59:37.277Z,32.68
2022-08-30T11:04:24.515Z,31.23
2022-08-30T11:24:29.520Z,30.05
2022-08-30T11:35:20.548Z,29.52
2022-08-30T11:41:12.114Z,29.51
2022-08-30T11:52:58.133Z,27.59
2022-08-30T11:58:29.811Z,27.38
2022-08-30T12:03:41.404Z,27.72
2022-08-30T12:14:41.918Z,26.49
2022-08-30T12:20:18.991Z,27.48
2022-08-30T12:25:19.297Z,27.76
2022-08-30T12:31:30.038Z,27.01
2022-08-30T12:36:17.501Z,28.16
2022-08-30T12:41:22.522Z,28.19
2022-08-30T12:45:39.823Z,28.10
2022-08-30T12:49:46.243Z,28.06
2022-08-30T12:54:23.136Z,29.37
2022-08-30T12:58:51.631Z,27.68
2022-08-30T13:03:02.725Z,27.86
2022-08-30T13:07:32.909Z,28.28
2022-08-30T13:16:30.532Z,27.46
2022-08-30T13:20:36.944Z,27.19
2022-08-30T13:24:37.900Z,26.97
2022-08-30T13:28:56.932Z,27.19
2022-08-30T13:32:56.955Z,26.52
2022-08-30T13:36:58.910Z,28.00
2022-08-30T13:40:59.303Z,25.41
2022-08-30T13:45:02.221Z,26.22
2022-08-30T13:49:06.515Z,25.59
2022-08-30T13:53:06.237Z,26.10
2022-08-30T13:57:07.989Z,24.75
2022-08-30T14:01:10.213Z,23.61
2022-08-30T14:05:30.852Z,24.60
2022-08-30T14:09:31.614Z,23.29
2022-08-30T14:13:31.722Z,24.12
2022-08-30T14:17:35.404Z,24.04
2022-08-30T14:21:37.261Z,23.77
2022-08-30T14:25:52.797Z,24.62
2022-08-30T14:29:54.221Z,24.62
2022-08-30T14:33:59.160Z,25.25
2022-08-30T14:37:59.604Z,26.27
2022-08-30T14:42:04.161Z,25.48
2022-08-30T14:46:07.467Z,25.29
2022-08-30T14:50:11.056Z,26.27
2022-08-30T14:54:12.003Z,24.92
2022-08-30T14:58:16.783Z,23.96
2022-08-30T15:02:17.170Z,24.86
2022-08-30T15:06:18.986Z,25.01
2022-08-30T15:10:21.060Z,24.77
2022-08-30T15:14:23.510Z,24.66
2022-08-30T15:18:24.049Z,24.04
2022-08-30T15:22:26.532Z,23.74
2022-08-30T15:26:27.449Z,24.44
2022-08-30T15:30:27.821Z,24.00
2022-08-30T15:34:28.647Z,24.33
2022-08-30T15:38:31.667Z,23.97
2022-08-30T15:42:33.475Z,23.96
2022-08-30T15:46:35.983Z,23.50
2022-08-30T15:50:41.378Z,23.51
2022-08-30T15:54:48.298Z,23.64
2022-08-30T15:58:50.065Z,23.28
2022-08-30T16:02:53.549Z,23.58
2022-08-30T16:06:53.869Z,23.89
2022-08-30T16:10:56.173Z,24.08
2022-08-30T16:14:58.478Z,24.08
2022-08-30T16:18:59.064Z,25.14
2022-08-30T16:22:59.002Z,25.80
2022-08-30T16:27:03.802Z,26.54
2022-08-30T16:31:08.744Z,27.27
2022-08-30T16:35:14.325Z,27.65
2022-08-30T16:39:14.803Z,27.36
2022-08-30T16:43:17.081Z,27.99
2022-08-30T16:47:18.072Z,29.73
2022-08-30T16:51:20.502Z,28.78
2022-08-30T16:55:20.056Z,28.97
2022-08-30T16:59:24.380Z,29.59
2022-08-30T17:03:24.165Z,29.85
2022-08-30T17:07:24.190Z,30.02
2022-08-30T17:11:23.501Z,30.88
2022-08-30T17:15:26.732Z,30.25
2022-08-30T17:19:28.988Z,30.12
2022-08-30T17:23:30.004Z,28.63
2022-08-30T17:27:32.332Z,29.24
2022-08-30T17:31:35.060Z,31.42
2022-08-30T17:35:34.831Z,31.10
2022-08-30T17:39:35.125Z,30.90
2022-08-30T17:43:38.533Z,30.90
2022-08-30T17:47:41.590Z,30.52
2022-08-30T17:51:42.563Z,31.01
2022-08-30T17:55:42.564Z,31.37
2022-08-30T17:59:42.970Z,31.84
2022-08-30T18:03:46.509Z,32.47
2022-08-30T18:07:46.640Z,33.05
2022-08-30T18:11:48.204Z,33.80
2022-08-30T18:15:50.740Z,34.81
2022-08-30T18:19:56.243Z,35.29
2022-08-30T18:24:00.771Z,35.88
2022-08-30T18:28:27.831Z,36.14
2022-08-30T18:32:36.200Z,35.98
2022-08-30T18:36:46.840Z,36.13
2022-08-30T18:40:49.890Z,36.70
2022-08-30T18:45:14.672Z,37.44
2022-08-30T18:49:32.479Z,38.10
2022-08-30T18:53:40.097Z,38.40
2022-08-30T18:58:06.131Z,38.80
2022-08-30T19:02:14.681Z,39.11
2022-08-30T19:06:14.886Z,39.72
2022-08-30T19:10:21.135Z,39.90
2022-08-30T19:14:20.853Z,40.09
2022-08-30T19:18:21.386Z,40.48
2022-08-30T19:26:46.543Z,40.56
2022-08-30T19:30:46.592Z,40.92
2022-08-30T19:34:46.935Z,41.13
2022-08-30T19:38:46.894Z,41.43
2022-08-30T19:42:50.460Z,42.05
2022-08-30T19:46:53.566Z,42.39
2022-08-30T19:50:55.460Z,42.69
2022-08-30T19:54:58.802Z,43.13
2022-08-30T19:59:01.197Z,43.82
2022-08-30T20:03:02.288Z,44.28
2022-08-30T20:07:02.989Z,45.00
2022-08-30T20:11:03.408Z,45.76
2022-08-30T20:15:12.198Z,46.62
2022-08-30T20:19:14.582Z,46.94
2022-08-30T20:23:14.707Z,47.78
2022-08-30T20:24:33.249Z,40.72
2022-08-30T20:27:19.551Z,47.77
2022-08-30T20:31:22.217Z,47.91
2022-08-30T20:35:23.609Z,48.17
2022-08-30T20:39:24.626Z,48.45
2022-08-30T20:43:27.588Z,49.01
2022-08-30T20:47:30.128Z,49.37
2022-08-30T20:51:30.579Z,49.55
2022-08-30T20:55:33.569Z,49.57
2022-08-30T20:59:34.732Z,50.46
2022-08-30T21:03:37.629Z,51.21
2022-08-30T21:07:40.421Z,52.19
2022-08-30T21:11:44.349Z,52.56
2022-08-30T21:15:46.090Z,53.04
2022-08-30T21:19:48.995Z,53.40
2022-08-30T21:23:50.853Z,53.33
2022-08-30T21:27:53.146Z,53.51
2022-08-30T21:31:53.685Z,53.66
2022-08-30T21:36:12.147Z,53.69
2022-08-30T21:40:14.961Z,53.72
2022-08-30T21:44:17.717Z,53.66
2022-08-30T21:48:18.027Z,53.35
2022-08-30T21:52:20.663Z,53.97
2022-08-30T21:56:23.243Z,53.87
2022-08-30T22:00:23.982Z,53.69
2022-08-30T22:04:26.879Z,53.79
2022-08-30T22:08:28.857Z,53.92
2022-08-30T22:12:29.194Z,53.92
2022-08-30T22:16:30.422Z,53.89
2022-08-30T22:20:30.866Z,53.55
2022-08-30T22:24:34.088Z,53.01
2022-08-30T22:28:34.229Z,53.42
2022-08-30T22:32:34.447Z,53.39
2022-08-30T22:36:37.246Z,53.23
2022-08-30T22:40:45.522Z,53.71
2022-08-30T22:44:50.243Z,54.04
2022-08-30T22:48:52.687Z,54.63
2022-08-30T22:52:52.202Z,54.49
2022-08-30T22:56:54.698Z,54.82
2022-08-30T23:00:56.141Z,54.82
2022-08-30T23:04:56.592Z,54.73
2022-08-30T23:08:56.944Z,54.56
2022-08-30T23:13:00.746Z,54.76
2022-08-30T23:17:01.215Z,54.98
2022-08-30T23:21:06.027Z,55.10
2022-08-30T23:25:32.087Z,55.14
2022-08-30T23:30:00.866Z,55.45
2022-08-30T23:34:17.412Z,56.10
2022-08-30T23:38:34.277Z,56.30
2022-08-30T23:42:49.899Z,56.70
2022-08-30T23:47:08.557Z,57.09
2022-08-30T23:51:25.486Z,57.98
2022-08-30T23:55:42.503Z,58.16
2022-08-30T23:59:59.131Z,58.52
